Time,TemperatureF,DewpointF,PressureIn,WindDirection,WindDirectionDegrees,WindSpeedMPH,WindSpeedGustMPH,Humidity,HourlyPrecipIn,Conditions,Clouds,dailyrainin,SoftwareType,DateUTC
2011-03-07 00:03:00,39.4,32.4,29.71,SSE,157,4.9,6.3,76,0.00,,,0.00,open2300-1.11,2011-03-07 07:03:00,
2011-03-07 00:13:00,39.4,32.4,29.71,SE,135,3.4,6.3,76,0.00,,,0.00,open2300-1.11,2011-03-07 07:13:00,
2011-03-07 00:24:00,39.0,32.4,29.71,East,90,2.5,4.2,77,0.00,,,0.00,open2300-1.11,2011-03-07 07:24:00,
2011-03-07 00:33:00,39.0,32.4,29.71,ESE,112,2.9,2.9,77,0.00,,,0.00,open2300-1.11,2011-03-07 07:33:00,
2011-03-07 00:43:00,39.0,32.4,29.71,SE,135,0.0,3.4,77,0.00,,,0.00,open2300-1.11,2011-03-07 07:43:00,
2011-03-07 00:53:00,39.0,32.4,29.70,East,90,0.0,2.5,77,0.00,,,0.00,open2300-1.11,2011-03-07 07:53:00,
2011-03-07 01:03:00,39.0,32.4,29.70,ESE,112,0.0,2.0,77,0.00,,,0.00,open2300-1.11,2011-03-07 08:03:00,
2011-03-07 01:13:00,39.0,32.4,29.70,SE,135,1.6,4.7,77,0.00,,,0.00,open2300-1.11,2011-03-07 08:13:00,
2011-03-07 01:24:00,39.0,32.8,29.70,SE,135,5.8,5.8,78,0.00,,,0.00,open2300-1.11,2011-03-07 08:24:00,
2011-03-07 01:33:00,39.0,32.8,29.70,East,90,0.0,5.8,78,0.00,,,0.00,open2300-1.11,2011-03-07 08:33:00,
2011-03-07 01:43:00,39.0,32.8,29.70,ESE,112,0.0,2.5,78,0.00,,,0.00,open2300-1.11,2011-03-07 08:43:00,
2011-03-07 01:53:00,39.0,32.8,29.70,ESE,112,0.0,5.8,78,0.00,,,0.00,open2300-1.11,2011-03-07 08:53:00,
2011-03-07 02:03:00,38.8,32.2,29.69,SE,135,0.0,0.9,77,0.00,,,0.00,open2300-1.11,2011-03-07 09:03:00,
2011-03-07 02:13:00,38.8,32.2,29.69,ENE,67,0.0,0.0,77,0.00,,,0.00,open2300-1.11,2011-03-07 09:13:00,
2011-03-07 02:23:00,38.8,32.6,29.68,SE,135,0.0,4.5,78,0.00,,,0.00,open2300-1.11,2011-03-07 09:23:00,
2011-03-07 02:33:00,38.8,32.6,29.68,ESE,112,2.7,3.6,78,0.00,,,0.00,open2300-1.11,2011-03-07 09:33:00,
2011-03-07 02:43:00,38.8,32.6,29.68,ESE,112,1.3,2.7,78,0.00,,,0.00,open2300-1.11,2011-03-07 09:43:00,
2011-03-07 02:53:00,38.5,32.2,29.67,SE,135,1.3,2.2,78,0.00,,,0.00,open2300-1.11,2011-03-07 09:53:00,
2011-03-07 03:03:00,38.5,32.2,29.67,SE,135,2.9,4.7,78,0.00,,,0.00,open2300-1.11,2011-03-07 10:03:00,
2011-03-07 03:13:00,38.5,32.2,29.67,SE,135,0.0,4.0,78,0.00,,,0.00,open2300-1.11,2011-03-07 10:13:00,
2011-03-07 03:23:00,38.5,32.2,29.66,East,90,0.0,4.0,78,0.00,,,0.00,open2300-1.11,2011-03-07 10:23:00,
2011-03-07 03:34:00,38.5,32.2,29.66,SE,135,2.9,2.9,78,0.00,,,0.00,open2300-1.11,2011-03-07 10:34:00,
2011-03-07 03:43:00,38.5,32.2,29.66,SE,135,0.0,2.9,78,0.00,,,0.00,open2300-1.11,2011-03-07 10:43:00,
2011-03-07 03:54:00,38.5,32.2,29.65,SE,135,2.5,6.0,78,0.00,,,0.00,open2300-1.11,2011-03-07 10:54:00,
2011-03-07 04:03:00,38.7,32.4,29.66,SSE,157,4.5,4.5,78,0.00,,,0.00,open2300-1.11,2011-03-07 11:03:00,
2011-03-07 04:13:00,38.5,31.9,29.65,East,90,0.0,4.5,77,0.00,,,0.00,open2300-1.11,2011-03-07 11:13:00,
2011-03-07 04:23:00,38.5,31.9,29.65,SE,135,0.0,1.8,77,0.00,,,0.00,open2300-1.11,2011-03-07 11:23:00,
2011-03-07 04:33:00,38.5,31.9,29.65,ESE,112,1.3,4.0,77,0.00,,,0.00,open2300-1.11,2011-03-07 11:33:00,
2011-03-07 04:43:00,38.3,31.7,29.65,ESE,112,0.9,2.2,77,0.00,,,0.00,open2300-1.11,2011-03-07 11:43:00,
2011-03-07 04:53:00,38.3,31.7,29.64,East,90,4.7,6.7,77,0.00,,,0.00,open2300-1.11,2011-03-07 11:53:00,
2011-03-07 05:03:00,38.1,31.5,29.64,East,90,3.6,6.5,77,0.00,,,0.00,open2300-1.11,2011-03-07 12:03:00,
2011-03-07 05:13:00,38.1,31.9,29.64,East,90,6.3,6.9,78,0.00,,,0.00,open2300-1.11,2011-03-07 12:13:00,
2011-03-07 05:23:00,38.1,31.9,29.64,East,90,6.0,6.7,78,0.02,,,0.02,open2300-1.11,2011-03-07 12:23:00,
2011-03-07 05:33:00,38.1,31.5,29.63,East,90,0.0,7.4,77,0.02,,,0.02,open2300-1.11,2011-03-07 12:33:00,
2011-03-07 05:43:00,37.9,31.7,29.63,East,90,4.0,6.9,78,0.02,,,0.02,open2300-1.11,2011-03-07 12:43:00,
2011-03-07 05:53:00,37.9,31.7,29.63,East,90,2.9,5.6,78,0.02,,,0.02,open2300-1.11,2011-03-07 12:53:00,
2011-03-07 06:03:00,37.8,31.5,29.63,ENE,67,0.0,6.9,78,0.02,,,0.02,open2300-1.11,2011-03-07 13:03:00,
2011-03-07 06:13:00,37.8,31.2,29.62,East,90,2.5,2.5,77,0.02,,,0.02,open2300-1.11,2011-03-07 13:13:00,
2011-03-07 06:23:00,37.6,31.3,29.62,ESE,112,1.8,9.2,78,0.00,,,0.02,open2300-1.11,2011-03-07 13:23:00,
2011-03-07 06:33:00,37.8,31.5,29.61,ENE,67,6.0,6.0,78,0.00,,,0.02,open2300-1.11,2011-03-07 13:33:00,
2011-03-07 06:43:00,38.1,31.5,29.61,East,90,4.9,10.1,77,0.00,,,0.02,open2300-1.11,2011-03-07 13:43:00,
2011-03-07 06:53:00,38.8,31.9,29.61,ESE,112,5.8,8.3,76,0.00,,,0.02,open2300-1.11,2011-03-07 13:53:00,
2011-03-07 07:04:00,39.0,31.7,29.61,East,90,7.6,9.6,75,0.00,,,0.02,open2300-1.11,2011-03-07 14:04:00,
2011-03-07 07:14:00,39.0,31.7,29.60,ENE,67,4.9,7.6,75,0.00,,,0.02,open2300-1.11,2011-03-07 14:14:00,
2011-03-07 07:23:00,39.6,31.9,29.60,ENE,67,6.3,7.2,74,0.00,,,0.02,open2300-1.11,2011-03-07 14:23:00,
2011-03-07 07:33:00,39.9,31.9,29.60,East,90,7.8,7.8,73,0.00,,,0.02,open2300-1.11,2011-03-07 14:33:00,
2011-03-07 07:43:00,40.3,31.9,29.60,East,90,0.0,7.8,72,0.00,,,0.02,open2300-1.11,2011-03-07 14:43:00,
2011-03-07 07:53:00,40.8,32.1,29.60,East,90,2.9,5.8,71,0.00,,,0.02,open2300-1.11,2011-03-07 14:53:00,
2011-03-07 08:03:00,41.4,32.4,29.59,ENE,67,2.7,6.5,70,0.00,,,0.02,open2300-1.11,2011-03-07 15:03:00,
2011-03-07 08:13:00,41.5,31.8,29.59,ESE,112,4.2,6.9,68,0.00,,,0.02,open2300-1.11,2011-03-07 15:13:00,
2011-03-07 08:23:00,41.9,32.1,29.59,SSE,157,5.4,5.4,68,0.00,,,0.02,open2300-1.11,2011-03-07 15:23:00,
2011-03-07 08:33:00,41.9,32.1,29.60,SE,135,7.8,7.8,68,0.00,,,0.02,open2300-1.11,2011-03-07 15:33:00,
2011-03-07 08:43:00,41.9,32.5,29.60,South,180,4.0,7.8,69,0.00,,,0.02,open2300-1.11,2011-03-07 15:43:00,
2011-03-07 08:53:00,41.5,32.9,29.61,ESE,112,0.2,4.0,71,0.00,,,0.02,open2300-1.11,2011-03-07 15:53:00,
2011-03-07 09:03:00,40.8,32.8,29.60,SSE,157,2.9,5.8,73,0.00,,,0.02,open2300-1.11,2011-03-07 16:03:00,
2011-03-07 09:13:00,40.6,33.3,29.60,ENE,67,6.5,6.5,75,0.00,,,0.02,open2300-1.11,2011-03-07 16:13:00,
2011-03-07 09:23:00,40.5,33.1,29.60,ENE,67,4.7,13.2,75,0.00,,,0.02,open2300-1.11,2011-03-07 16:23:00,
2011-03-07 09:34:00,40.1,33.1,29.60,ENE,67,5.4,6.3,76,0.00,,,0.02,open2300-1.11,2011-03-07 16:34:00,
2011-03-07 09:43:00,39.9,33.3,29.60,East,90,6.5,7.6,77,0.00,,,0.02,open2300-1.11,2011-03-07 16:43:00,
2011-03-07 09:54:00,39.7,33.4,29.58,East,90,6.0,7.2,78,0.00,,,0.02,open2300-1.11,2011-03-07 16:54:00,
2011-03-07 10:04:00,39.4,33.4,29.59,ESE,112,4.5,8.3,79,0.00,,,0.02,open2300-1.11,2011-03-07 17:04:00,
2011-03-07 10:13:00,39.4,33.8,29.58,ENE,67,13.0,14.5,81,0.02,,,0.04,open2300-1.11,2011-03-07 17:13:00,
2011-03-07 10:23:00,39.2,33.9,29.58,ENE,67,7.4,14.3,81,0.02,,,0.04,open2300-1.11,2011-03-07 17:23:00,
2011-03-07 10:33:00,39.4,34.1,29.58,ENE,67,9.6,14.3,81,0.02,,,0.04,open2300-1.11,2011-03-07 17:33:00,
2011-03-07 10:43:00,39.4,34.4,29.58,ENE,67,12.5,14.5,82,0.02,,,0.04,open2300-1.11,2011-03-07 17:43:00,
2011-03-07 10:53:00,39.6,34.5,29.57,East,90,9.2,12.5,82,0.02,,,0.04,open2300-1.11,2011-03-07 17:53:00,
2011-03-07 11:03:00,40.3,35.2,29.56,ENE,67,10.1,11.4,82,0.02,,,0.04,open2300-1.11,2011-03-07 18:03:00,
2011-03-07 11:13:00,41.4,36.2,29.56,East,90,11.0,11.0,82,0.00,,,0.04,open2300-1.11,2011-03-07 18:13:00,
2011-03-07 11:23:00,42.4,37.0,29.55,East,90,9.8,11.0,81,0.00,,,0.04,open2300-1.11,2011-03-07 18:23:00,
2011-03-07 11:34:00,43.0,36.9,29.55,East,90,7.6,14.5,79,0.00,,,0.04,open2300-1.11,2011-03-07 18:34:00,
2011-03-07 11:43:00,43.5,37.1,29.54,East,90,1.8,7.6,78,0.00,,,0.04,open2300-1.11,2011-03-07 18:43:00,
2011-03-07 11:53:00,44.1,37.3,29.53,East,90,10.1,10.7,77,0.00,,,0.04,open2300-1.11,2011-03-07 18:53:00,
2011-03-07 12:04:00,44.8,37.7,29.52,East,90,8.5,13.4,76,0.00,,,0.04,open2300-1.11,2011-03-07 19:04:00,
2011-03-07 12:13:00,46.0,38.6,29.52,East,90,7.6,11.9,75,0.00,,,0.04,open2300-1.11,2011-03-07 19:13:00,
2011-03-07 12:24:00,46.0,38.2,29.52,East,90,8.5,8.5,74,0.00,,,0.04,open2300-1.11,2011-03-07 19:24:00,
2011-03-07 12:33:00,46.0,37.9,29.51,ENE,67,8.5,11.4,73,0.00,,,0.04,open2300-1.11,2011-03-07 19:33:00,
2011-03-07 12:43:00,46.6,38.1,29.50,SE,135,6.9,8.5,72,0.00,,,0.04,open2300-1.11,2011-03-07 19:43:00,
2011-03-07 12:54:00,46.9,37.3,29.50,ESE,112,5.4,13.6,69,0.00,,,0.04,open2300-1.11,2011-03-07 19:54:00,
2011-03-07 13:03:00,47.1,37.1,29.50,East,90,0.7,6.5,68,0.00,,,0.04,open2300-1.11,2011-03-07 20:03:00,
2011-03-07 13:13:00,47.5,37.0,29.49,SE,135,2.0,2.7,67,0.00,,,0.04,open2300-1.11,2011-03-07 20:13:00,
2011-03-07 13:23:00,48.0,37.2,29.47,SE,135,3.4,3.4,66,0.00,,,0.04,open2300-1.11,2011-03-07 20:23:00,
2011-03-07 13:34:00,48.2,36.6,29.47,ESE,112,3.4,6.3,64,0.00,,,0.04,open2300-1.11,2011-03-07 20:34:00,
2011-03-07 13:43:00,47.8,36.6,29.47,East,90,0.0,5.6,65,0.00,,,0.04,open2300-1.11,2011-03-07 20:43:00,
2011-03-07 13:53:00,47.8,35.8,29.47,SSE,157,2.5,3.8,63,0.00,,,0.04,open2300-1.11,2011-03-07 20:53:00,
2011-03-07 14:03:00,47.7,35.7,29.47,SE,135,1.3,6.3,63,0.00,,,0.04,open2300-1.11,2011-03-07 21:03:00,
2011-03-07 14:13:00,47.5,36.3,29.47,East,90,4.7,6.7,65,0.00,,,0.04,open2300-1.11,2011-03-07 21:13:00,
2011-03-07 14:23:00,46.8,36.0,29.47,North,0,3.6,10.3,66,0.00,,,0.04,open2300-1.11,2011-03-07 21:23:00,
2011-03-07 14:34:00,46.2,35.8,29.47,East,90,6.3,9.8,67,0.00,,,0.04,open2300-1.11,2011-03-07 21:34:00,
2011-03-07 14:43:00,45.3,35.4,29.48,East,90,8.3,8.3,68,0.00,,,0.04,open2300-1.11,2011-03-07 21:43:00,
2011-03-07 14:54:00,45.0,35.4,29.48,NE,45,6.9,8.3,69,0.00,,,0.04,open2300-1.11,2011-03-07 21:54:00,
2011-03-07 15:03:00,44.4,35.3,29.48,ENE,67,4.7,6.9,70,0.00,,,0.04,open2300-1.11,2011-03-07 22:03:00,
2011-03-07 15:13:00,43.5,34.8,29.49,WSW,247,5.8,8.1,71,0.00,,,0.04,open2300-1.11,2011-03-07 22:13:00,
2011-03-07 15:23:00,42.8,34.5,29.50,WNW,292,2.5,5.8,72,0.00,,,0.04,open2300-1.11,2011-03-07 22:23:00,
2011-03-07 15:33:00,42.3,34.6,29.49,SSE,157,1.3,3.1,74,0.02,,,0.06,open2300-1.11,2011-03-07 22:33:00,
2011-03-07 15:43:00,41.7,34.7,29.48,East,90,6.3,6.3,76,0.02,,,0.06,open2300-1.11,2011-03-07 22:43:00,
2011-03-07 15:53:00,41.5,34.8,29.49,East,90,0.0,6.3,77,0.04,,,0.08,open2300-1.11,2011-03-07 22:53:00,
2011-03-07 16:03:00,41.4,35.0,29.49,East,90,5.4,5.4,78,0.04,,,0.08,open2300-1.11,2011-03-07 23:03:00,
2011-03-07 16:13:00,40.8,34.4,29.48,SSE,157,5.8,14.3,78,0.04,,,0.08,open2300-1.11,2011-03-07 23:13:00,
2011-03-07 16:23:00,40.3,34.2,29.48,ESE,112,5.8,5.8,79,0.04,,,0.08,open2300-1.11,2011-03-07 23:23:00,
2011-03-07 16:34:00,39.9,33.9,29.49,ENE,67,4.7,5.8,79,0.02,,,0.08,open2300-1.11,2011-03-07 23:34:00,
2011-03-07 16:43:00,39.7,34.1,29.49,ESE,112,0.0,4.9,80,0.02,,,0.08,open2300-1.11,2011-03-07 23:43:00,
2011-03-07 16:54:00,39.9,34.3,29.50,ESE,112,1.6,1.6,80,0.00,,,0.08,open2300-1.11,2011-03-07 23:54:00,
2011-03-07 17:04:00,39.7,34.1,29.50,South,180,0.0,4.0,80,0.00,,,0.08,open2300-1.11,2011-03-08 00:04:00,
2011-03-07 17:14:00,39.4,33.8,29.49,ESE,112,0.0,1.6,80,0.00,,,0.08,open2300-1.11,2011-03-08 00:14:00,
2011-03-07 17:24:00,39.6,33.9,29.50,ESE,112,0.0,1.1,80,0.00,,,0.08,open2300-1.11,2011-03-08 00:24:00,
2011-03-07 17:34:00,39.6,34.2,29.50,ENE,67,0.0,0.0,81,0.00,,,0.08,open2300-1.11,2011-03-08 00:34:00,
2011-03-07 17:43:00,39.4,34.1,29.50,East,90,1.6,1.6,81,0.00,,,0.08,open2300-1.11,2011-03-08 00:43:00,
2011-03-07 17:54:00,39.4,34.1,29.51,East,90,0.9,2.2,81,0.00,,,0.08,open2300-1.11,2011-03-08 00:54:00,
2011-03-07 18:03:00,39.4,34.1,29.51,East,90,0.0,4.9,81,0.00,,,0.08,open2300-1.11,2011-03-08 01:03:00,
2011-03-07 18:13:00,39.4,34.1,29.51,ENE,67,3.1,3.4,81,0.00,,,0.08,open2300-1.11,2011-03-08 01:13:00,
2011-03-07 18:23:00,39.2,33.9,29.51,ESE,112,0.0,3.1,81,0.00,,,0.08,open2300-1.11,2011-03-08 01:23:00,
2011-03-07 18:34:00,39.0,33.7,29.51,SE,135,0.0,2.0,81,0.00,,,0.08,open2300-1.11,2011-03-08 01:34:00,
2011-03-07 18:43:00,39.0,33.7,29.51,ESE,112,2.2,2.2,81,0.00,,,0.08,open2300-1.11,2011-03-08 01:43:00,
2011-03-07 18:53:00,39.0,34.0,29.51,SSE,157,2.5,2.5,82,0.00,,,0.08,open2300-1.11,2011-03-08 01:53:00,
2011-03-07 19:04:00,38.8,33.8,29.51,East,90,2.9,6.5,82,0.00,,,0.08,open2300-1.11,2011-03-08 02:04:00,
2011-03-07 19:13:00,38.7,33.7,29.51,NE,45,1.3,9.2,82,0.00,,,0.08,open2300-1.11,2011-03-08 02:13:00,
2011-03-07 19:24:00,38.7,33.7,29.55,WSW,247,3.8,6.5,82,0.00,,,0.08,open2300-1.11,2011-03-08 02:24:00,
2011-03-07 19:34:00,38.1,33.1,29.53,WSW,247,5.6,7.4,82,0.00,,,0.08,open2300-1.11,2011-03-08 02:34:00,
2011-03-07 19:43:00,38.1,33.1,29.52,West,270,3.4,6.0,82,0.02,,,0.10,open2300-1.11,2011-03-08 02:43:00,
2011-03-07 19:54:00,38.3,33.3,29.51,West,270,2.7,5.1,82,0.02,,,0.10,open2300-1.11,2011-03-08 02:54:00,
2011-03-07 20:03:00,38.7,33.7,29.52,NNW,337,2.0,2.7,82,0.02,,,0.10,open2300-1.11,2011-03-08 03:03:00,
2011-03-07 20:13:00,38.5,33.5,29.52,NW,315,0.7,5.4,82,0.02,,,0.10,open2300-1.11,2011-03-08 03:13:00,
2011-03-07 20:23:00,38.5,33.5,29.52,NNE,22,0.0,1.8,82,0.02,,,0.10,open2300-1.11,2011-03-08 03:23:00,
2011-03-07 20:33:00,38.7,33.7,29.52,NW,315,0.0,0.0,82,0.00,,,0.10,open2300-1.11,2011-03-08 03:33:00,
2011-03-07 20:43:00,38.8,33.8,29.53,NW,315,0.0,0.7,82,0.00,,,0.10,open2300-1.11,2011-03-08 03:43:00,
2011-03-07 20:53:00,38.8,33.8,29.53,NW,315,0.0,0.0,82,0.00,,,0.10,open2300-1.11,2011-03-08 03:53:00,
2011-03-07 21:03:00,38.8,34.1,29.53,NW,315,0.0,0.0,83,0.00,,,0.10,open2300-1.11,2011-03-08 04:03:00,
2011-03-07 21:13:00,38.5,33.8,29.53,WNW,292,1.3,1.3,83,0.00,,,0.10,open2300-1.11,2011-03-08 04:13:00,
2011-03-07 21:24:00,38.7,33.7,29.53,West,270,1.3,1.3,82,0.00,,,0.10,open2300-1.11,2011-03-08 04:24:00,
2011-03-07 21:34:00,38.8,33.5,29.53,WNW,292,0.0,2.2,81,0.00,,,0.10,open2300-1.11,2011-03-08 04:34:00,
2011-03-07 21:43:00,38.5,32.9,29.53,WSW,247,0.0,1.3,80,0.00,,,0.10,open2300-1.11,2011-03-08 04:43:00,
2011-03-07 21:53:00,38.5,32.9,29.53,WSW,247,0.0,0.0,80,0.00,,,0.10,open2300-1.11,2011-03-08 04:53:00,
2011-03-07 22:03:00,38.3,32.4,29.54,WNW,292,0.0,3.6,79,0.00,,,0.10,open2300-1.11,2011-03-08 05:03:00,
2011-03-07 22:13:00,38.3,32.4,29.55,West,270,2.9,5.6,79,0.00,,,0.10,open2300-1.11,2011-03-08 05:13:00,
2011-03-07 22:23:00,38.5,31.9,29.55,WSW,247,2.0,4.5,77,0.00,,,0.10,open2300-1.11,2011-03-08 05:23:00,
2011-03-07 22:33:00,38.3,31.7,29.55,West,270,7.4,7.4,77,0.00,,,0.10,open2300-1.11,2011-03-08 05:33:00,
2011-03-07 22:43:00,38.3,31.4,29.56,WSW,247,5.6,8.7,76,0.00,,,0.10,open2300-1.11,2011-03-08 05:43:00,
2011-03-07 22:54:00,38.3,31.4,29.56,SW,225,0.0,5.6,76,0.00,,,0.10,open2300-1.11,2011-03-08 05:54:00,
2011-03-07 23:03:00,37.9,31.0,29.55,WNW,292,0.0,2.5,76,0.00,,,0.10,open2300-1.11,2011-03-08 06:03:00,
2011-03-07 23:13:00,37.8,31.2,29.55,West,270,3.1,3.1,77,0.00,,,0.10,open2300-1.11,2011-03-08 06:13:00,
2011-03-07 23:23:00,37.6,31.0,29.56,NW,315,0.0,3.1,77,0.00,,,0.10,open2300-1.11,2011-03-08 06:23:00,
2011-03-07 23:34:00,37.2,30.3,29.57,NW,315,0.0,0.0,76,0.00,,,0.10,open2300-1.11,2011-03-08 06:34:00,
2011-03-07 23:44:00,37.0,30.2,29.57,West,270,1.3,1.3,76,0.00,,,0.10,open2300-1.11,2011-03-08 06:44:00,
2011-03-07 23:53:00,37.0,30.2,29.56,WNW,292,0.0,1.3,76,0.00,,,0.10,open2300-1.11,2011-03-08 06:53:00,